createdAt,value
2022-10-29T00:01:38.709Z,7.18
2022-10-29T00:04:08.824Z,8.05
2022-10-29T00:06:38.662Z,7.70
2022-10-29T00:09:12.556Z,7.43
2022-10-29T00:11:42.320Z,7.57
2022-10-29T00:14:12.102Z,7.95
2022-10-29T00:16:42.610Z,7.75
2022-10-29T00:19:12.405Z,7.28
2022-10-29T00:21:42.149Z,8.32
2022-10-29T00:24:14.990Z,8.38
2022-10-29T00:26:44.763Z,8.55
2022-10-29T00:29:14.684Z,8.13
2022-10-29T00:31:44.527Z,8.25
2022-10-29T00:34:14.358Z,8.60
2022-10-29T00:36:44.093Z,8.60
2022-10-29T00:39:18.463Z,8.27
2022-10-29T00:44:39.060Z,8.13
2022-10-29T00:47:20.636Z,8.23
2022-10-29T00:49:52.981Z,7.93
2022-10-29T00:52:24.718Z,8.68
2022-10-29T00:54:58.322Z,8.85
2022-10-29T00:57:32.397Z,9.68
2022-10-29T01:00:02.264Z,8.85
2022-10-29T01:02:34.548Z,9.52
2022-10-29T01:05:05.339Z,8.73
2022-10-29T01:07:35.513Z,8.93
2022-10-29T01:10:08.701Z,8.25
2022-10-29T01:12:55.928Z,8.25
2022-10-29T01:15:32.204Z,7.18
2022-10-29T01:18:13.546Z,6.95
2022-10-29T01:21:16.526Z,8.02
2022-10-29T01:24:25.684Z,7.90
2022-10-29T01:27:28.247Z,7.63
2022-10-29T01:30:11.123Z,7.57
2022-10-29T01:32:54.498Z,7.72
2022-10-29T01:35:32.920Z,7.68
2022-10-29T01:38:13.699Z,7.13
2022-10-29T01:40:52.295Z,7.30
2022-10-29T01:43:29.098Z,7.20
2022-10-29T01:46:04.523Z,7.25
2022-10-29T01:48:40.705Z,8.05
2022-10-29T01:51:16.548Z,8.30
2022-10-29T01:53:46.347Z,7.80
2022-10-29T01:56:16.063Z,8.55
2022-10-29T01:58:50.171Z,7.97
2022-10-29T02:01:39.490Z,7.30
2022-10-29T02:04:32.884Z,7.45
2022-10-29T02:07:29.682Z,7.47
2022-10-29T02:10:27.265Z,8.05
2022-10-29T02:13:18.479Z,7.68
2022-10-29T02:16:10.167Z,7.55
2022-10-29T02:18:58.799Z,7.90
2022-10-29T02:21:49.539Z,7.65
2022-10-29T02:24:38.151Z,7.50
2022-10-29T02:27:26.975Z,7.70
2022-10-29T02:30:15.244Z,7.93
2022-10-29T02:33:03.881Z,7.57
2022-10-29T02:35:52.371Z,7.47
2022-10-29T02:38:43.404Z,6.82
2022-10-29T02:41:31.737Z,7.60
2022-10-29T02:44:20.078Z,7.40
2022-10-29T02:47:08.434Z,7.30
2022-10-29T02:49:57.157Z,7.75
2022-10-29T02:52:45.246Z,7.72
2022-10-29T02:55:35.916Z,7.85
2022-10-29T02:58:24.114Z,7.25
2022-10-29T03:01:12.705Z,8.63
2022-10-29T03:04:01.615Z,7.97
2022-10-29T03:06:50.301Z,7.88
2022-10-29T03:09:38.778Z,7.30
2022-10-29T03:12:11.478Z,8.25
2022-10-29T03:14:41.187Z,8.30
2022-10-29T03:17:10.902Z,7.25
2022-10-29T03:19:40.612Z,7.43
2022-10-29T03:22:10.325Z,7.90
2022-10-29T03:24:40.194Z,7.40
2022-10-29T03:27:12.513Z,8.00
2022-10-29T03:29:42.252Z,7.90
2022-10-29T03:32:11.951Z,6.90
2022-10-29T03:34:41.760Z,7.68
2022-10-29T03:37:11.498Z,7.47
2022-10-29T03:39:41.260Z,7.50
2022-10-29T03:42:13.559Z,7.55
2022-10-29T03:44:43.263Z,7.35
2022-10-29T03:47:12.968Z,7.63
2022-10-29T03:49:42.868Z,7.63
2022-10-29T03:52:12.572Z,7.63
2022-10-29T03:54:42.284Z,8.00
2022-10-29T03:57:14.600Z,7.03
2022-10-29T03:59:46.005Z,7.38
2022-10-29T04:02:18.370Z,7.47
2022-10-29T04:04:48.432Z,7.80
2022-10-29T04:07:18.566Z,7.35
2022-10-29T04:09:48.275Z,6.57
2022-10-29T04:12:20.565Z,6.90
2022-10-29T04:17:20.982Z,6.47
2022-10-29T04:19:50.691Z,6.78
2022-10-29T04:30:54.173Z,7.70
2022-10-29T04:33:23.937Z,6.65
2022-10-29T04:35:57.158Z,6.53
2022-10-29T04:38:26.871Z,6.60
2022-10-29T04:40:59.763Z,6.65
2022-10-29T04:43:33.266Z,6.13
2022-10-29T04:46:03.062Z,6.57
2022-10-29T04:48:33.072Z,6.63
2022-10-29T04:51:02.893Z,7.43
2022-10-29T04:53:32.646Z,6.32
2022-10-29T04:56:05.567Z,7.25
2022-10-29T04:58:37.884Z,7.22
2022-10-29T05:01:08.323Z,6.85
2022-10-29T05:03:38.827Z,6.10
2022-10-29T05:06:09.697Z,6.35
2022-10-29T05:08:39.503Z,6.70
2022-10-29T05:11:09.843Z,7.10
2022-10-29T05:13:42.175Z,6.93
2022-10-29T05:16:11.957Z,6.75
2022-10-29T05:18:41.677Z,6.68
2022-10-29T05:21:11.441Z,6.85
2022-10-29T05:23:41.180Z,6.35
2022-10-29T05:26:10.893Z,6.57
2022-10-29T05:28:43.210Z,6.97
2022-10-29T05:31:12.938Z,7.72
2022-10-29T05:33:42.655Z,7.18
2022-10-29T05:36:12.562Z,7.20
2022-10-29T05:38:42.281Z,6.82
2022-10-29T05:41:12.562Z,7.50
2022-10-29T05:43:44.871Z,6.38
2022-10-29T05:46:14.567Z,6.13
2022-10-29T05:48:47.247Z,6.15
2022-10-29T05:51:16.965Z,5.93
2022-10-29T05:53:46.709Z,6.70
2022-10-29T05:56:16.542Z,6.68
2022-10-29T05:58:51.913Z,6.80
2022-10-29T06:01:21.924Z,6.68
2022-10-29T06:06:22.634Z,7.50
2022-10-29T06:08:52.416Z,8.10
2022-10-29T06:11:22.225Z,6.78
2022-10-29T06:13:57.574Z,6.45
2022-10-29T06:16:27.310Z,6.82
2022-10-29T06:18:57.057Z,7.05
2022-10-29T06:21:26.855Z,7.05
2022-10-29T06:23:56.836Z,7.30
2022-10-29T06:26:26.657Z,6.25
2022-10-29T06:28:59.066Z,7.15
2022-10-29T06:31:29.024Z,7.22
2022-10-29T06:33:59.146Z,6.57
2022-10-29T06:36:29.025Z,7.07
2022-10-29T06:38:58.738Z,7.30
2022-10-29T06:41:28.785Z,6.85
2022-10-29T06:44:01.057Z,6.82
2022-10-29T06:46:30.898Z,7.60
2022-10-29T06:49:00.937Z,6.90
2022-10-29T06:51:30.690Z,6.53
2022-10-29T06:54:00.419Z,6.70
2022-10-29T06:56:31.222Z,7.05
2022-10-29T06:59:03.736Z,7.28
2022-10-29T07:01:33.701Z,6.32
2022-10-29T07:04:03.747Z,7.28
2022-10-29T07:06:35.886Z,7.28
2022-10-29T07:09:05.829Z,7.05
2022-10-29T07:11:35.562Z,6.68
2022-10-29T07:14:09.778Z,6.68
2022-10-29T07:16:39.822Z,7.28
2022-10-29T07:19:09.707Z,6.47
2022-10-29T07:21:39.424Z,7.07
2022-10-29T07:24:12.926Z,6.90
2022-10-29T07:26:42.654Z,7.13
2022-10-29T07:29:14.943Z,6.63
2022-10-29T07:31:44.680Z,6.45
2022-10-29T07:34:15.016Z,6.82
2022-10-29T07:36:44.793Z,6.82
2022-10-29T07:39:14.560Z,7.32
2022-10-29T07:41:44.297Z,6.28
2022-10-29T07:44:16.594Z,6.40
2022-10-29T07:46:46.360Z,6.85
2022-10-29T07:49:16.089Z,6.50
2022-10-29T07:51:46.040Z,6.53
2022-10-29T07:54:15.783Z,6.18
2022-10-29T07:56:47.765Z,6.00
2022-10-29T07:59:20.308Z,7.65
2022-10-29T08:01:50.393Z,6.13
2022-10-29T08:04:20.210Z,6.85
2022-10-29T08:06:49.940Z,6.55
2022-10-29T08:09:19.662Z,6.20
2022-10-29T08:11:49.410Z,6.88
2022-10-29T08:14:22.863Z,6.72
2022-10-29T08:16:52.687Z,6.30
2022-10-29T08:19:22.376Z,5.88
2022-10-29T08:21:52.146Z,6.68
2022-10-29T08:24:21.986Z,6.32
2022-10-29T08:26:52.818Z,5.85
2022-10-29T08:29:25.120Z,6.43
2022-10-29T08:31:54.871Z,5.85
2022-10-29T08:34:24.663Z,6.15
2022-10-29T08:36:54.468Z,5.15
2022-10-29T08:39:24.186Z,5.78
2022-10-29T08:42:04.525Z,5.32
2022-10-29T08:44:58.736Z,5.75
2022-10-29T08:47:28.585Z,6.07
2022-10-29T08:50:06.186Z,6.22
2022-10-29T08:52:52.832Z,6.90
2022-10-29T08:55:32.843Z,6.03
2022-10-29T08:58:16.031Z,5.93
2022-10-29T09:00:51.576Z,5.43
2022-10-29T09:03:21.400Z,6.20
2022-10-29T09:05:58.927Z,6.20
2022-10-29T09:08:37.969Z,5.70
2022-10-29T09:11:18.660Z,5.72
2022-10-29T09:13:55.275Z,5.63
2022-10-29T09:16:43.470Z,6.10
2022-10-29T09:19:31.112Z,6.13
2022-10-29T09:22:13.212Z,5.80
2022-10-29T09:24:49.653Z,5.82
2022-10-29T09:27:25.016Z,6.13
2022-10-29T09:30:06.892Z,6.28
2022-10-29T09:32:43.611Z,5.70
2022-10-29T09:35:17.150Z,6.35
2022-10-29T09:37:51.451Z,5.72
2022-10-29T09:40:33.659Z,5.93
2022-10-29T09:43:08.820Z,5.78
2022-10-29T09:45:53.739Z,5.93
2022-10-29T09:48:32.692Z,4.82
2022-10-29T09:51:13.097Z,5.65
2022-10-29T09:53:42.877Z,5.32
2022-10-29T09:56:12.842Z,6.13
2022-10-29T09:58:47.704Z,4.97
2022-10-29T10:01:17.664Z,6.18
2022-10-29T10:03:56.589Z,5.90
2022-10-29T10:06:26.593Z,5.15
2022-10-29T10:09:04.614Z,5.25
2022-10-29T10:11:40.482Z,5.25
2022-10-29T10:14:20.298Z,5.05
2022-10-29T10:16:58.938Z,4.35
2022-10-29T10:19:33.995Z,4.78
2022-10-29T10:22:05.516Z,5.05
2022-10-29T10:24:37.068Z,5.10
2022-10-29T10:27:28.198Z,4.97
2022-10-29T10:30:15.831Z,5.00
2022-10-29T10:32:45.536Z,5.03
2022-10-29T10:35:38.104Z,4.45
2022-10-29T10:38:11.860Z,5.40
2022-10-29T10:40:41.689Z,5.28
2022-10-29T10:43:22.415Z,4.15
2022-10-29T10:45:57.544Z,5.18
2022-10-29T10:48:33.617Z,4.93
2022-10-29T10:51:25.928Z,4.88
2022-10-29T10:53:56.132Z,4.72
2022-10-29T10:56:27.393Z,4.90
2022-10-29T10:59:05.692Z,4.93
2022-10-29T11:01:40.117Z,4.82
2022-10-29T11:04:20.011Z,4.40
2022-10-29T11:06:55.759Z,4.50
2022-10-29T11:09:31.352Z,4.88
2022-10-29T11:12:05.957Z,4.97
2022-10-29T11:14:38.139Z,4.40
2022-10-29T11:17:19.855Z,4.50
2022-10-29T11:19:52.853Z,4.75
2022-10-29T11:22:28.822Z,4.72
2022-10-29T11:25:03.219Z,4.90
2022-10-29T11:27:41.326Z,4.35
2022-10-29T11:30:14.982Z,4.90
2022-10-29T11:32:59.301Z,4.22
2022-10-29T11:35:40.348Z,4.07
2022-10-29T11:38:18.929Z,4.30
2022-10-29T11:40:53.408Z,4.53
2022-10-29T11:43:24.581Z,4.30
2022-10-29T11:46:02.063Z,4.72
2022-10-29T11:48:44.239Z,4.97
2022-10-29T11:51:24.251Z,4.22
2022-10-29T11:54:02.525Z,4.18
2022-10-29T11:56:55.042Z,3.45
2022-10-29T11:59:34.673Z,3.85
2022-10-29T12:02:21.935Z,4.63
2022-10-29T12:05:00.691Z,4.20
2022-10-29T12:07:44.389Z,4.40
2022-10-29T12:10:46.172Z,5.27
2022-10-29T12:13:29.017Z,4.25
2022-10-29T12:16:10.951Z,4.45
2022-10-29T12:18:49.335Z,4.00
2022-10-29T12:21:28.773Z,4.22
2022-10-29T12:24:09.967Z,4.22
2022-10-29T12:26:48.969Z,3.90
2022-10-29T12:29:24.154Z,3.97
2022-10-29T12:31:59.786Z,3.97
2022-10-29T12:34:34.498Z,3.60
2022-10-29T12:37:13.089Z,3.95
2022-10-29T12:39:47.610Z,3.55
2022-10-29T12:42:25.335Z,4.20
2022-10-29T12:45:06.259Z,4.85
2022-10-29T12:47:40.523Z,4.05
2022-10-29T12:50:26.157Z,4.05
2022-10-29T12:53:05.901Z,3.45
2022-10-29T12:55:37.063Z,4.07
2022-10-29T12:58:36.762Z,4.10
2022-10-29T13:01:09.460Z,4.35
2022-10-29T13:04:11.934Z,3.97
2022-10-29T13:06:52.480Z,3.72
2022-10-29T13:09:24.531Z,4.45
2022-10-29T13:11:56.541Z,4.88
2022-10-29T13:14:30.490Z,4.55
2022-10-29T13:17:05.814Z,4.38
2022-10-29T13:19:52.879Z,4.07
2022-10-29T13:22:52.925Z,4.00
2022-10-29T13:25:53.009Z,4.18
2022-10-29T13:28:53.838Z,4.90
2022-10-29T13:31:54.158Z,5.40
2022-10-29T13:34:54.634Z,5.20
2022-10-29T13:37:58.051Z,4.63
2022-10-29T13:41:05.444Z,4.32
2022-10-29T13:43:36.119Z,4.38
2022-10-29T13:46:44.089Z,4.35
2022-10-29T13:49:20.351Z,4.60
2022-10-29T13:52:01.727Z,4.72
2022-10-29T13:54:43.708Z,4.63
2022-10-29T13:57:22.149Z,4.78
2022-10-29T13:59:56.146Z,4.75
2022-10-29T14:02:40.196Z,4.90
2022-10-29T14:05:19.264Z,5.60
2022-10-29T14:07:56.068Z,5.85
2022-10-29T14:13:31.481Z,6.43
2022-10-29T14:16:05.565Z,6.00
2022-10-29T14:21:08.876Z,5.20
2022-10-29T14:24:04.817Z,5.45
2022-10-29T14:27:10.369Z,6.13
2022-10-29T14:30:16.983Z,6.47
2022-10-29T14:33:05.340Z,4.90
2022-10-29T14:35:55.243Z,5.25
2022-10-29T14:38:47.226Z,5.88
2022-10-29T14:41:41.596Z,5.25
2022-10-29T14:44:32.764Z,5.05
2022-10-29T14:47:32.139Z,5.95
2022-10-29T14:50:24.545Z,4.47
2022-10-29T14:52:57.947Z,4.82
2022-10-29T14:55:30.687Z,6.13
2022-10-29T14:58:08.042Z,5.47
2022-10-29T15:00:39.465Z,5.00
2022-10-29T15:03:10.256Z,5.82
2022-10-29T15:05:40.623Z,6.28
2022-10-29T15:08:19.057Z,6.35
2022-10-29T15:10:50.926Z,6.38
2022-10-29T15:13:37.518Z,6.03
2022-10-29T15:16:10.570Z,5.78
2022-10-29T15:18:42.895Z,5.85
2022-10-29T15:21:12.660Z,5.90
2022-10-29T15:23:46.179Z,5.70
2022-10-29T15:26:20.630Z,5.50
2022-10-29T15:28:57.406Z,6.15
2022-10-29T15:31:33.177Z,6.35
2022-10-29T15:34:10.352Z,5.60
2022-10-29T15:36:51.180Z,6.15
2022-10-29T15:39:26.727Z,6.82
2022-10-29T15:41:59.047Z,5.18
2022-10-29T15:44:40.037Z,5.90
2022-10-29T15:47:29.114Z,6.18
2022-10-29T15:49:58.818Z,5.75
2022-10-29T15:52:34.540Z,5.75
2022-10-29T15:55:06.533Z,5.60
2022-10-29T15:57:36.281Z,5.97
2022-10-29T16:00:11.170Z,5.60
2022-10-29T16:02:41.047Z,6.05
2022-10-29T16:05:14.675Z,5.07
2022-10-29T16:07:45.449Z,5.40
2022-10-29T16:10:21.259Z,5.10
2022-10-29T16:12:52.407Z,5.60
2022-10-29T16:15:24.955Z,5.43
2022-10-29T16:17:56.087Z,5.10
2022-10-29T16:20:26.065Z,6.63
2022-10-29T16:22:56.189Z,5.72
2022-10-29T16:25:28.078Z,5.63
2022-10-29T16:27:59.295Z,5.68
2022-10-29T16:30:32.010Z,6.50
2022-10-29T16:33:04.277Z,6.40
2022-10-29T16:35:34.466Z,6.15
2022-10-29T16:38:04.226Z,6.40
2022-10-29T16:40:34.264Z,6.65
2022-10-29T16:43:04.324Z,6.85
2022-10-29T16:45:36.997Z,6.25
2022-10-29T16:48:07.730Z,6.97
2022-10-29T16:50:38.112Z,7.00
2022-10-29T16:53:10.150Z,6.00
2022-10-29T16:55:42.281Z,7.57
2022-10-29T16:58:15.606Z,6.70
2022-10-29T17:00:48.657Z,7.57
2022-10-29T17:03:20.597Z,7.15
2022-10-29T17:05:50.526Z,8.52
2022-10-29T17:08:20.616Z,8.75
2022-10-29T17:10:50.862Z,8.18
2022-10-29T17:13:20.890Z,8.90
2022-10-29T17:15:53.440Z,8.82
2022-10-29T17:18:24.658Z,8.27
2022-10-29T17:20:58.875Z,8.40
2022-10-29T17:26:00.245Z,10.73
2022-10-29T17:28:31.827Z,11.40
2022-10-29T17:31:07.633Z,13.05
2022-10-29T17:33:37.949Z,12.45
2022-10-29T17:36:10.637Z,11.57
2022-10-29T17:38:40.430Z,11.88
2022-10-29T17:41:10.377Z,12.77
2022-10-29T17:43:40.243Z,11.20
2022-10-29T17:46:14.013Z,8.15
2022-10-29T17:48:43.766Z,10.38
2022-10-29T17:51:13.731Z,11.52
2022-10-29T17:53:43.714Z,11.20
2022-10-29T17:56:13.589Z,11.90
2022-10-29T17:58:43.490Z,9.63
2022-10-29T18:01:16.284Z,9.82
2022-10-29T18:03:46.571Z,11.10
2022-10-29T18:06:17.720Z,10.80
2022-10-29T18:08:47.635Z,10.40
2022-10-29T18:11:20.625Z,10.85
2022-10-29T18:13:51.578Z,10.32
2022-10-29T18:16:28.700Z,10.75
2022-10-29T18:19:02.837Z,13.27
2022-10-29T18:21:34.193Z,14.65
2022-10-29T18:24:04.009Z,16.27
2022-10-29T18:26:35.627Z,17.52
2022-10-29T18:29:08.318Z,15.52
2022-10-29T18:31:44.938Z,13.55
2022-10-29T18:34:16.935Z,15.63
2022-10-29T18:36:47.570Z,14.85
2022-10-29T18:39:17.419Z,15.60
2022-10-29T18:41:47.195Z,14.40
2022-10-29T18:44:17.060Z,12.80
2022-10-29T18:46:49.413Z,12.32
2022-10-29T18:49:19.572Z,11.60
2022-10-29T18:51:49.581Z,11.30
2022-10-29T18:54:19.829Z,10.43
2022-10-29T18:56:49.683Z,10.70
2022-10-29T18:59:19.580Z,10.52
2022-10-29T19:01:51.984Z,10.57
2022-10-29T19:04:21.863Z,10.07
2022-10-29T19:06:51.670Z,9.88
2022-10-29T19:09:21.469Z,9.77
2022-10-29T19:11:56.740Z,8.65
2022-10-29T19:14:29.144Z,8.25
2022-10-29T19:17:01.460Z,9.07
2022-10-29T19:19:31.180Z,8.85
2022-10-29T19:22:00.895Z,8.80
2022-10-29T19:24:30.767Z,9.60
2022-10-29T19:27:00.503Z,10.80
2022-10-29T19:29:30.220Z,9.70
2022-10-29T19:32:02.510Z,9.38
2022-10-29T19:34:32.373Z,9.43
2022-10-29T19:37:02.342Z,10.50
2022-10-29T19:39:32.096Z,9.20
2022-10-29T19:42:01.851Z,10.48
2022-10-29T19:44:31.646Z,9.70
2022-10-29T19:47:03.973Z,9.40
2022-10-29T19:49:34.990Z,10.15
2022-10-29T19:52:04.790Z,9.70
2022-10-29T19:54:34.619Z,10.07
2022-10-29T19:57:04.389Z,10.88
2022-10-29T19:59:34.108Z,10.20
2022-10-29T20:02:06.519Z,9.90
2022-10-29T20:04:36.344Z,10.40
2022-10-29T20:07:06.116Z,10.48
2022-10-29T20:09:35.934Z,10.75
2022-10-29T20:12:05.730Z,11.32
2022-10-29T20:14:35.526Z,10.73
2022-10-29T20:17:08.003Z,10.48
2022-10-29T20:19:37.716Z,9.98
2022-10-29T20:22:07.461Z,10.77
2022-10-29T20:24:37.358Z,10.52
2022-10-29T20:27:07.172Z,10.38
2022-10-29T20:29:36.851Z,10.88
2022-10-29T20:32:09.179Z,10.73
2022-10-29T20:34:38.881Z,10.25
2022-10-29T20:37:08.597Z,10.48
2022-10-29T20:39:38.309Z,10.57
2022-10-29T20:42:08.178Z,10.80
2022-10-29T20:44:38.018Z,11.43
2022-10-29T20:47:10.387Z,11.10
2022-10-29T20:49:40.197Z,12.27
2022-10-29T20:52:09.927Z,11.48
2022-10-29T20:54:39.656Z,10.80
2022-10-29T20:57:09.378Z,11.48
2022-10-29T20:59:39.084Z,11.18
2022-10-29T21:02:13.159Z,11.82
2022-10-29T21:04:42.977Z,11.60
2022-10-29T21:07:12.723Z,11.43
2022-10-29T21:09:42.573Z,11.02
2022-10-29T21:12:12.300Z,11.07
2022-10-29T21:14:42.003Z,10.80
2022-10-29T21:17:14.328Z,10.38
2022-10-29T21:19:44.054Z,10.50
2022-10-29T21:22:14.891Z,10.60
2022-10-29T21:24:45.730Z,10.38
2022-10-29T21:27:15.685Z,10.57
2022-10-29T21:29:45.407Z,10.73
2022-10-29T21:32:17.727Z,9.93
2022-10-29T21:34:47.454Z,10.38
2022-10-29T21:37:17.172Z,10.95
2022-10-29T21:39:46.994Z,11.73
2022-10-29T21:42:16.724Z,11.18
2022-10-29T21:44:46.534Z,11.32
2022-10-29T21:47:18.838Z,11.00
2022-10-29T21:49:51.878Z,12.65
2022-10-29T21:52:21.872Z,12.02
2022-10-29T21:54:52.168Z,10.93
2022-10-29T21:57:21.894Z,10.93
2022-10-29T21:59:51.604Z,10.90
2022-10-29T22:02:23.953Z,11.82
2022-10-29T22:04:53.740Z,11.20
2022-10-29T22:07:23.493Z,12.00
2022-10-29T22:09:53.199Z,11.95
2022-10-29T22:12:22.900Z,11.40
2022-10-29T22:14:52.590Z,11.93
2022-10-29T22:17:24.894Z,11.73
2022-10-29T22:19:54.603Z,12.50
2022-10-29T22:22:24.565Z,11.75
2022-10-29T22:24:54.288Z,11.27
2022-10-29T22:27:24.057Z,10.90
2022-10-29T22:29:54.578Z,10.85
2022-10-29T22:32:27.619Z,11.23
2022-10-29T22:34:57.295Z,10.98
2022-10-29T22:37:27.148Z,11.32
2022-10-29T22:39:56.858Z,12.68
2022-10-29T22:42:26.569Z,11.75
2022-10-29T22:44:56.381Z,11.82
2022-10-29T22:47:28.672Z,11.13
2022-10-29T22:49:59.418Z,11.43
2022-10-29T22:52:29.248Z,12.45
2022-10-29T22:54:59.035Z,12.68
2022-10-29T22:57:28.741Z,11.55
2022-10-29T22:59:58.444Z,12.48
2022-10-29T23:02:30.840Z,11.80
2022-10-29T23:05:00.652Z,10.50
2022-10-29T23:10:20.073Z,10.75
2022-10-29T23:12:49.839Z,9.80
2022-10-29T23:15:19.839Z,10.25
2022-10-29T23:17:55.774Z,10.90
2022-10-29T23:20:25.683Z,10.32
2022-10-29T23:22:55.789Z,11.00
2022-10-29T23:25:25.723Z,11.10
2022-10-29T23:27:56.985Z,11.45
2022-10-29T23:30:26.811Z,10.73
2022-10-29T23:32:59.459Z,10.80
2022-10-29T23:35:29.537Z,10.88
2022-10-29T23:37:59.569Z,11.05
2022-10-29T23:40:29.677Z,11.32
2022-10-29T23:42:59.481Z,10.95
2022-10-29T23:45:29.299Z,10.40
2022-10-29T23:48:01.579Z,10.93
2022-10-29T23:50:33.992Z,11.43
2022-10-29T23:53:03.737Z,11.07
2022-10-29T23:55:33.464Z,11.07
2022-10-29T23:58:04.286Z,10.65
